sensor_id;sensor_type;location;lat;lon;timestamp;temperature;humidity
77100;SHT31;66602;48.922;2.414;2023-05-10T00:00:09;10.68;92.33
77100;SHT31;66602;48.922;2.414;2023-05-10T00:02:35;10.66;92.94
77100;SHT31;66602;48.922;2.414;2023-05-10T00:05:01;10.42;93.33
77100;SHT31;66602;48.922;2.414;2023-05-10T00:07:27;10.51;93.38
77100;SHT31;66602;48.922;2.414;2023-05-10T00:09:52;10.41;93.74
77100;SHT31;66602;48.922;2.414;2023-05-10T00:12:18;10.55;93.53
77100;SHT31;66602;48.922;2.414;2023-05-10T00:14:43;10.34;93.66
77100;SHT31;66602;48.922;2.414;2023-05-10T00:17:09;10.42;93.59
77100;SHT31;66602;48.922;2.414;2023-05-10T00:19:34;10.41;93.86
77100;SHT31;66602;48.922;2.414;2023-05-10T00:21:59;10.61;92.99
77100;SHT31;66602;48.922;2.414;2023-05-10T00:24:25;10.62;90.70
77100;SHT31;66602;48.922;2.414;2023-05-10T00:26:50;10.62;89.83
77100;SHT31;66602;48.922;2.414;2023-05-10T00:29:16;10.54;89.32
77100;SHT31;66602;48.922;2.414;2023-05-10T00:31:41;10.48;88.74
77100;SHT31;66602;48.922;2.414;2023-05-10T00:34:07;10.33;89.71
77100;SHT31;66602;48.922;2.414;2023-05-10T00:36:32;10.05;90.31
77100;SHT31;66602;48.922;2.414;2023-05-10T00:38:58;10.10;89.82
77100;SHT31;66602;48.922;2.414;2023-05-10T00:41:23;9.91;90.74
77100;SHT31;66602;48.922;2.414;2023-05-10T00:43:49;9.82;90.67
77100;SHT31;66602;48.922;2.414;2023-05-10T00:46:15;10.14;87.70
77100;SHT31;66602;48.922;2.414;2023-05-10T00:48:41;10.00;87.93
77100;SHT31;66602;48.922;2.414;2023-05-10T00:51:07;9.74;89.41
77100;SHT31;66602;48.922;2.414;2023-05-10T00:53:34;9.56;90.64
77100;SHT31;66602;48.922;2.414;2023-05-10T00:56:00;9.67;88.88
77100;SHT31;66602;48.922;2.414;2023-05-10T00:58:27;9.84;87.38
77100;SHT31;66602;48.922;2.414;2023-05-10T01:00:55;9.67;89.25
77100;SHT31;66602;48.922;2.414;2023-05-10T01:03:22;9.87;87.19
77100;SHT31;66602;48.922;2.414;2023-05-10T01:05:47;9.95;86.97
77100;SHT31;66602;48.922;2.414;2023-05-10T01:08:13;9.86;88.57
77100;SHT31;66602;48.922;2.414;2023-05-10T01:10:38;9.89;87.42
77100;SHT31;66602;48.922;2.414;2023-05-10T01:13:04;9.83;88.88
77100;SHT31;66602;48.922;2.414;2023-05-10T01:15:30;9.90;88.04
77100;SHT31;66602;48.922;2.414;2023-05-10T01:17:56;9.91;87.55
77100;SHT31;66602;48.922;2.414;2023-05-10T01:20:22;9.83;88.23
77100;SHT31;66602;48.922;2.414;2023-05-10T01:25:49;9.95;87.60
77100;SHT31;66602;48.922;2.414;2023-05-10T01:31:26;9.94;88.30
77100;SHT31;66602;48.922;2.414;2023-05-10T01:33:59;10.14;86.42
77100;SHT31;66602;48.922;2.414;2023-05-10T01:36:31;10.08;87.15
77100;SHT31;66602;48.922;2.414;2023-05-10T01:42:00;9.98;88.39
77100;SHT31;66602;48.922;2.414;2023-05-10T01:47:08;10.03;88.56
77100;SHT31;66602;48.922;2.414;2023-05-10T01:49:41;10.04;87.94
77100;SHT31;66602;48.922;2.414;2023-05-10T01:52:12;10.03;88.88
77100;SHT31;66602;48.922;2.414;2023-05-10T01:54:43;10.05;88.46
77100;SHT31;66602;48.922;2.414;2023-05-10T01:57:10;10.05;88.27
77100;SHT31;66602;48.922;2.414;2023-05-10T01:59:40;10.07;87.15
77100;SHT31;66602;48.922;2.414;2023-05-10T02:02:08;10.05;87.17
77100;SHT31;66602;48.922;2.414;2023-05-10T02:04:38;10.13;86.54
77100;SHT31;66602;48.922;2.414;2023-05-10T02:07:05;10.05;87.54
77100;SHT31;66602;48.922;2.414;2023-05-10T02:09:32;9.98;87.34
77100;SHT31;66602;48.922;2.414;2023-05-10T02:12:01;10.01;87.79
77100;SHT31;66602;48.922;2.414;2023-05-10T02:14:29;9.97;87.19
77100;SHT31;66602;48.922;2.414;2023-05-10T02:16:56;10.00;88.13
77100;SHT31;66602;48.922;2.414;2023-05-10T02:19:23;9.98;87.50
77100;SHT31;66602;48.922;2.414;2023-05-10T02:21:50;9.94;88.33
77100;SHT31;66602;48.922;2.414;2023-05-10T02:24:17;9.95;87.19
77100;SHT31;66602;48.922;2.414;2023-05-10T02:26:44;9.94;87.82
77100;SHT31;66602;48.922;2.414;2023-05-10T02:29:10;9.91;87.72
77100;SHT31;66602;48.922;2.414;2023-05-10T02:31:38;9.84;88.29
77100;SHT31;66602;48.922;2.414;2023-05-10T02:34:04;9.83;88.09
77100;SHT31;66602;48.922;2.414;2023-05-10T02:36:31;9.86;87.70
77100;SHT31;66602;48.922;2.414;2023-05-10T02:38:58;9.91;87.38
77100;SHT31;66602;48.922;2.414;2023-05-10T02:41:25;9.93;87.26
77100;SHT31;66602;48.922;2.414;2023-05-10T02:43:56;9.97;87.45
77100;SHT31;66602;48.922;2.414;2023-05-10T02:46:23;10.08;86.51
77100;SHT31;66602;48.922;2.414;2023-05-10T02:48:48;10.04;86.90
77100;SHT31;66602;48.922;2.414;2023-05-10T02:51:15;10.04;86.77
77100;SHT31;66602;48.922;2.414;2023-05-10T02:53:44;10.10;86.18
77100;SHT31;66602;48.922;2.414;2023-05-10T02:56:20;10.01;87.48
77100;SHT31;66602;48.922;2.414;2023-05-10T02:58:48;10.07;87.14
77100;SHT31;66602;48.922;2.414;2023-05-10T03:01:14;10.03;87.24
77100;SHT31;66602;48.922;2.414;2023-05-10T03:03:40;10.11;86.71
77100;SHT31;66602;48.922;2.414;2023-05-10T03:06:06;10.10;86.04
77100;SHT31;66602;48.922;2.414;2023-05-10T03:08:31;10.11;86.17
77100;SHT31;66602;48.922;2.414;2023-05-10T03:13:39;10.13;86.65
77100;SHT31;66602;48.922;2.414;2023-05-10T03:16:12;10.13;86.42
77100;SHT31;66602;48.922;2.414;2023-05-10T03:18:55;10.11;86.10
77100;SHT31;66602;48.922;2.414;2023-05-10T03:21:22;10.14;87.31
77100;SHT31;66602;48.922;2.414;2023-05-10T03:23:58;10.07;87.88
77100;SHT31;66602;48.922;2.414;2023-05-10T03:26:26;10.03;88.20
77100;SHT31;66602;48.922;2.414;2023-05-10T03:28:52;10.00;88.84
77100;SHT31;66602;48.922;2.414;2023-05-10T03:31:19;10.04;88.70
77100;SHT31;66602;48.922;2.414;2023-05-10T03:33:51;10.07;87.87
77100;SHT31;66602;48.922;2.414;2023-05-10T03:36:18;10.07;87.73
77100;SHT31;66602;48.922;2.414;2023-05-10T03:38:44;10.05;87.93
77100;SHT31;66602;48.922;2.414;2023-05-10T03:41:09;10.11;88.62
77100;SHT31;66602;48.922;2.414;2023-05-10T03:43:35;10.15;88.11
77100;SHT31;66602;48.922;2.414;2023-05-10T03:46:04;10.17;87.84
77100;SHT31;66602;48.922;2.414;2023-05-10T03:48:31;10.20;87.75
77100;SHT31;66602;48.922;2.414;2023-05-10T03:50:57;10.22;87.12
77100;SHT31;66602;48.922;2.414;2023-05-10T03:53:22;10.21;87.89
77100;SHT31;66602;48.922;2.414;2023-05-10T03:55:48;10.22;87.31
77100;SHT31;66602;48.922;2.414;2023-05-10T03:58:14;10.25;87.56
77100;SHT31;66602;48.922;2.414;2023-05-10T04:00:40;10.31;86.96
77100;SHT31;66602;48.922;2.414;2023-05-10T04:03:09;10.28;87.57
77100;SHT31;66602;48.922;2.414;2023-05-10T04:05:35;10.40;86.70
77100;SHT31;66602;48.922;2.414;2023-05-10T04:08:02;10.37;87.12
77100;SHT31;66602;48.922;2.414;2023-05-10T04:10:27;10.38;87.58
77100;SHT31;66602;48.922;2.414;2023-05-10T04:12:53;10.34;87.69
77100;SHT31;66602;48.922;2.414;2023-05-10T04:15:19;10.35;87.41
77100;SHT31;66602;48.922;2.414;2023-05-10T04:17:44;10.34;87.80
77100;SHT31;66602;48.922;2.414;2023-05-10T04:20:10;10.37;88.22
77100;SHT31;66602;48.922;2.414;2023-05-10T04:22:36;10.35;88.22
77100;SHT31;66602;48.922;2.414;2023-05-10T04:25:02;10.38;88.06
77100;SHT31;66602;48.922;2.414;2023-05-10T04:27:28;10.41;88.36
77100;SHT31;66602;48.922;2.414;2023-05-10T04:29:53;10.41;88.26
77100;SHT31;66602;48.922;2.414;2023-05-10T04:32:19;10.42;88.70
77100;SHT31;66602;48.922;2.414;2023-05-10T04:34:45;10.45;88.52
77100;SHT31;66602;48.922;2.414;2023-05-10T04:37:11;10.45;88.45
77100;SHT31;66602;48.922;2.414;2023-05-10T04:39:36;10.51;88.05
77100;SHT31;66602;48.922;2.414;2023-05-10T04:42:02;10.52;88.38
77100;SHT31;66602;48.922;2.414;2023-05-10T04:44:29;10.52;88.47
77100;SHT31;66602;48.922;2.414;2023-05-10T04:46:55;10.55;88.41
77100;SHT31;66602;48.922;2.414;2023-05-10T04:49:20;10.59;88.08
77100;SHT31;66602;48.922;2.414;2023-05-10T04:51:45;10.58;88.28
77100;SHT31;66602;48.922;2.414;2023-05-10T04:54:11;10.62;88.70
77100;SHT31;66602;48.922;2.414;2023-05-10T04:56:37;10.62;89.25
77100;SHT31;66602;48.922;2.414;2023-05-10T04:59:02;10.61;89.53
77100;SHT31;66602;48.922;2.414;2023-05-10T05:01:28;10.48;90.69
77100;SHT31;66602;48.922;2.414;2023-05-10T05:03:53;10.34;91.62
77100;SHT31;66602;48.922;2.414;2023-05-10T05:06:19;10.27;92.21
77100;SHT31;66602;48.922;2.414;2023-05-10T05:08:46;10.27;92.43
77100;SHT31;66602;48.922;2.414;2023-05-10T05:11:11;10.25;92.23
77100;SHT31;66602;48.922;2.414;2023-05-10T05:13:37;10.22;92.34
77100;SHT31;66602;48.922;2.414;2023-05-10T05:16:03;10.31;92.86
77100;SHT31;66602;48.922;2.414;2023-05-10T05:18:28;10.34;92.60
77100;SHT31;66602;48.922;2.414;2023-05-10T05:20:54;10.37;93.03
77100;SHT31;66602;48.922;2.414;2023-05-10T05:23:19;10.28;93.86
77100;SHT31;66602;48.922;2.414;2023-05-10T05:25:46;10.20;94.30
77100;SHT31;66602;48.922;2.414;2023-05-10T05:28:12;10.17;94.73
77100;SHT31;66602;48.922;2.414;2023-05-10T05:30:37;10.18;95.07
77100;SHT31;66602;48.922;2.414;2023-05-10T05:33:03;10.17;95.01
77100;SHT31;66602;48.922;2.414;2023-05-10T05:35:29;10.22;95.10
77100;SHT31;66602;48.922;2.414;2023-05-10T05:37:54;10.24;95.24
77100;SHT31;66602;48.922;2.414;2023-05-10T05:40:21;10.27;95.30
77100;SHT31;66602;48.922;2.414;2023-05-10T05:42:46;10.25;95.43
77100;SHT31;66602;48.922;2.414;2023-05-10T05:45:12;10.42;95.60
77100;SHT31;66602;48.922;2.414;2023-05-10T05:47:40;10.54;95.18
77100;SHT31;66602;48.922;2.414;2023-05-10T05:50:06;10.59;94.07
77100;SHT31;66602;48.922;2.414;2023-05-10T05:52:31;10.62;93.88
77100;SHT31;66602;48.922;2.414;2023-05-10T05:54:57;10.72;94.13
77100;SHT31;66602;48.922;2.414;2023-05-10T05:57:22;10.88;93.62
77100;SHT31;66602;48.922;2.414;2023-05-10T05:59:48;11.02;92.82
77100;SHT31;66602;48.922;2.414;2023-05-10T06:02:13;11.14;92.14
77100;SHT31;66602;48.922;2.414;2023-05-10T06:04:39;11.30;92.49
77100;SHT31;66602;48.922;2.414;2023-05-10T06:07:05;11.31;91.33
77100;SHT31;66602;48.922;2.414;2023-05-10T06:09:30;11.30;91.82
77100;SHT31;66602;48.922;2.414;2023-05-10T06:11:56;11.45;90.32
77100;SHT31;66602;48.922;2.414;2023-05-10T06:14:23;11.71;90.09
77100;SHT31;66602;48.922;2.414;2023-05-10T06:16:48;11.65;88.66
77100;SHT31;66602;48.922;2.414;2023-05-10T06:19:14;11.68;90.11
77100;SHT31;66602;48.922;2.414;2023-05-10T06:21:39;11.55;90.69
77100;SHT31;66602;48.922;2.414;2023-05-10T06:24:05;11.41;91.20
77100;SHT31;66602;48.922;2.414;2023-05-10T06:26:32;11.22;91.56
77100;SHT31;66602;48.922;2.414;2023-05-10T06:28:57;11.23;92.32
77100;SHT31;66602;48.922;2.414;2023-05-10T06:31:23;11.28;92.56
77100;SHT31;66602;48.922;2.414;2023-05-10T06:33:48;11.24;92.05
77100;SHT31;66602;48.922;2.414;2023-05-10T06:36:14;11.23;92.15
77100;SHT31;66602;48.922;2.414;2023-05-10T06:38:39;11.22;92.44
77100;SHT31;66602;48.922;2.414;2023-05-10T06:41:05;11.20;92.78
77100;SHT31;66602;48.922;2.414;2023-05-10T06:43:31;11.24;92.78
77100;SHT31;66602;48.922;2.414;2023-05-10T06:45:57;11.23;92.61
77100;SHT31;66602;48.922;2.414;2023-05-10T06:48:22;11.19;92.67
77100;SHT31;66602;48.922;2.414;2023-05-10T06:50:48;11.16;92.66
77100;SHT31;66602;48.922;2.414;2023-05-10T06:53:13;11.20;92.85
77100;SHT31;66602;48.922;2.414;2023-05-10T06:55:39;11.22;93.01
77100;SHT31;66602;48.922;2.414;2023-05-10T06:58:04;11.23;93.05
77100;SHT31;66602;48.922;2.414;2023-05-10T07:00:31;11.28;92.53
77100;SHT31;66602;48.922;2.414;2023-05-10T07:02:56;11.27;92.65
77100;SHT31;66602;48.922;2.414;2023-05-10T07:05:22;11.31;93.04
77100;SHT31;66602;48.922;2.414;2023-05-10T07:07:47;11.33;92.99
77100;SHT31;66602;48.922;2.414;2023-05-10T07:10:13;11.38;92.50
77100;SHT31;66602;48.922;2.414;2023-05-10T07:12:38;11.47;92.10
77100;SHT31;66602;48.922;2.414;2023-05-10T07:15:04;11.62;91.62
77100;SHT31;66602;48.922;2.414;2023-05-10T07:17:30;11.86;91.08
77100;SHT31;66602;48.922;2.414;2023-05-10T07:19:55;12.13;89.77
77100;SHT31;66602;48.922;2.414;2023-05-10T07:22:21;12.18;89.75
77100;SHT31;66602;48.922;2.414;2023-05-10T07:24:47;12.06;89.78
77100;SHT31;66602;48.922;2.414;2023-05-10T07:27:12;11.95;90.53
77100;SHT31;66602;48.922;2.414;2023-05-10T07:29:38;11.88;91.97
77100;SHT31;66602;48.922;2.414;2023-05-10T07:32:04;11.78;92.02
77100;SHT31;66602;48.922;2.414;2023-05-10T07:34:30;11.68;92.86
77100;SHT31;66602;48.922;2.414;2023-05-10T07:37:00;11.60;92.83
77100;SHT31;66602;48.922;2.414;2023-05-10T07:39:26;11.57;93.24
77100;SHT31;66602;48.922;2.414;2023-05-10T07:41:52;11.55;93.12
77100;SHT31;66602;48.922;2.414;2023-05-10T07:44:17;11.62;92.89
77100;SHT31;66602;48.922;2.414;2023-05-10T07:46:46;11.58;92.68
77100;SHT31;66602;48.922;2.414;2023-05-10T07:49:12;11.51;93.25
77100;SHT31;66602;48.922;2.414;2023-05-10T07:51:38;11.50;93.02
77100;SHT31;66602;48.922;2.414;2023-05-10T07:54:03;11.47;93.67
77100;SHT31;66602;48.922;2.414;2023-05-10T07:56:31;11.47;93.61
77100;SHT31;66602;48.922;2.414;2023-05-10T07:58:57;11.51;93.87
77100;SHT31;66602;48.922;2.414;2023-05-10T08:01:23;11.53;94.13
77100;SHT31;66602;48.922;2.414;2023-05-10T08:03:49;11.53;93.79
77100;SHT31;66602;48.922;2.414;2023-05-10T08:06:17;11.50;94.00
77100;SHT31;66602;48.922;2.414;2023-05-10T08:08:43;11.48;94.48
77100;SHT31;66602;48.922;2.414;2023-05-10T08:11:10;11.44;94.73
77100;SHT31;66602;48.922;2.414;2023-05-10T08:13:36;11.45;94.55
77100;SHT31;66602;48.922;2.414;2023-05-10T08:16:01;11.54;94.70
77100;SHT31;66602;48.922;2.414;2023-05-10T08:18:27;11.60;94.61
77100;SHT31;66602;48.922;2.414;2023-05-10T08:20:53;11.74;94.48
77100;SHT31;66602;48.922;2.414;2023-05-10T08:23:19;11.82;93.48
77100;SHT31;66602;48.922;2.414;2023-05-10T08:25:44;11.88;93.82
77100;SHT31;66602;48.922;2.414;2023-05-10T08:28:10;11.99;93.30
77100;SHT31;66602;48.922;2.414;2023-05-10T08:30:35;12.11;92.91
77100;SHT31;66602;48.922;2.414;2023-05-10T08:33:00;12.32;92.58
77100;SHT31;66602;48.922;2.414;2023-05-10T08:35:26;12.33;90.94
77100;SHT31;66602;48.922;2.414;2023-05-10T08:37:51;12.40;91.51
77100;SHT31;66602;48.922;2.414;2023-05-10T08:40:19;12.30;91.80
77100;SHT31;66602;48.922;2.414;2023-05-10T08:42:53;12.13;92.34
77100;SHT31;66602;48.922;2.414;2023-05-10T08:45:22;11.99;93.28
77100;SHT31;66602;48.922;2.414;2023-05-10T08:47:49;11.91;93.47
77100;SHT31;66602;48.922;2.414;2023-05-10T08:50:16;11.99;93.58
77100;SHT31;66602;48.922;2.414;2023-05-10T08:52:42;12.13;92.80
77100;SHT31;66602;48.922;2.414;2023-05-10T08:55:09;12.23;92.80
77100;SHT31;66602;48.922;2.414;2023-05-10T08:57:35;12.16;91.93
77100;SHT31;66602;48.922;2.414;2023-05-10T09:00:01;12.34;91.45
77100;SHT31;66602;48.922;2.414;2023-05-10T09:02:27;12.56;91.11
77100;SHT31;66602;48.922;2.414;2023-05-10T09:04:53;12.80;90.94
77100;SHT31;66602;48.922;2.414;2023-05-10T09:07:19;12.90;90.26
77100;SHT31;66602;48.922;2.414;2023-05-10T09:09:45;12.91;90.24
77100;SHT31;66602;48.922;2.414;2023-05-10T09:12:12;12.95;89.67
77100;SHT31;66602;48.922;2.414;2023-05-10T09:14:41;12.95;89.63
77100;SHT31;66602;48.922;2.414;2023-05-10T09:17:07;13.19;90.21
77100;SHT31;66602;48.922;2.414;2023-05-10T09:19:33;13.29;90.06
77100;SHT31;66602;48.922;2.414;2023-05-10T09:21:58;13.28;88.64
77100;SHT31;66602;48.922;2.414;2023-05-10T09:24:25;13.31;88.68
77100;SHT31;66602;48.922;2.414;2023-05-10T09:26:52;13.42;88.57
77100;SHT31;66602;48.922;2.414;2023-05-10T09:29:18;13.48;87.25
77100;SHT31;66602;48.922;2.414;2023-05-10T09:31:51;13.58;86.81
77100;SHT31;66602;48.922;2.414;2023-05-10T09:34:19;13.52;86.46
77100;SHT31;66602;48.922;2.414;2023-05-10T09:36:56;13.74;86.79
77100;SHT31;66602;48.922;2.414;2023-05-10T09:39:36;13.76;87.39
77100;SHT31;66602;48.922;2.414;2023-05-10T09:42:09;13.62;87.45
77100;SHT31;66602;48.922;2.414;2023-05-10T09:44:34;13.43;88.76
77100;SHT31;66602;48.922;2.414;2023-05-10T09:47:03;13.26;89.20
77100;SHT31;66602;48.922;2.414;2023-05-10T09:49:28;13.12;89.81
77100;SHT31;66602;48.922;2.414;2023-05-10T09:52:02;12.83;87.83
77100;SHT31;66602;48.922;2.414;2023-05-10T09:54:27;12.68;89.46
77100;SHT31;66602;48.922;2.414;2023-05-10T09:56:53;12.74;90.20
77100;SHT31;66602;48.922;2.414;2023-05-10T09:59:18;12.81;90.40
77100;SHT31;66602;48.922;2.414;2023-05-10T10:01:50;12.81;90.65
77100;SHT31;66602;48.922;2.414;2023-05-10T10:04:16;12.71;90.12
77100;SHT31;66602;48.922;2.414;2023-05-10T10:06:42;12.65;89.92
77100;SHT31;66602;48.922;2.414;2023-05-10T10:09:08;12.80;88.13
77100;SHT31;66602;48.922;2.414;2023-05-10T10:11:37;13.05;87.88
77100;SHT31;66602;48.922;2.414;2023-05-10T10:14:04;13.43;87.55
77100;SHT31;66602;48.922;2.414;2023-05-10T10:16:29;13.90;86.80
77100;SHT31;66602;48.922;2.414;2023-05-10T10:18:56;14.31;84.03
77100;SHT31;66602;48.922;2.414;2023-05-10T10:21:22;14.55;83.92
77100;SHT31;66602;48.922;2.414;2023-05-10T10:23:48;15.27;82.42
77100;SHT31;66602;48.922;2.414;2023-05-10T10:26:15;16.20;79.38
77100;SHT31;66602;48.922;2.414;2023-05-10T10:28:56;16.15;74.82
77100;SHT31;66602;48.922;2.414;2023-05-10T10:31:36;15.88;76.78
77100;SHT31;66602;48.922;2.414;2023-05-10T10:34:21;16.50;75.67
77100;SHT31;66602;48.922;2.414;2023-05-10T10:36:50;16.61;74.33
77100;SHT31;66602;48.922;2.414;2023-05-10T10:39:15;16.09;76.78
77100;SHT31;66602;48.922;2.414;2023-05-10T10:41:53;16.22;75.33
77100;SHT31;66602;48.922;2.414;2023-05-10T10:49:49;16.63;71.46
77100;SHT31;66602;48.922;2.414;2023-05-10T10:55:14;17.83;68.36
77100;SHT31;66602;48.922;2.414;2023-05-10T10:57:45;17.19;67.44
77100;SHT31;66602;48.922;2.414;2023-05-10T11:00:34;16.12;71.38
77100;SHT31;66602;48.922;2.414;2023-05-10T11:03:09;16.18;72.05
77100;SHT31;66602;48.922;2.414;2023-05-10T11:05:42;15.81;72.15
77100;SHT31;66602;48.922;2.414;2023-05-10T11:10:48;15.48;73.76
77100;SHT31;66602;48.922;2.414;2023-05-10T11:13:13;15.67;73.28
77100;SHT31;66602;48.922;2.414;2023-05-10T11:15:40;15.85;74.48
77100;SHT31;66602;48.922;2.414;2023-05-10T11:18:19;16.26;71.23
77100;SHT31;66602;48.922;2.414;2023-05-10T11:20:50;16.61;68.71
77100;SHT31;66602;48.922;2.414;2023-05-10T11:23:16;16.70;70.96
77100;SHT31;66602;48.922;2.414;2023-05-10T11:25:44;16.59;71.98
77100;SHT31;66602;48.922;2.414;2023-05-10T11:28:10;15.74;71.73
77100;SHT31;66602;48.922;2.414;2023-05-10T11:30:38;15.07;73.53
77100;SHT31;66602;48.922;2.414;2023-05-10T11:33:05;14.90;75.92
77100;SHT31;66602;48.922;2.414;2023-05-10T11:35:30;14.67;76.15
77100;SHT31;66602;48.922;2.414;2023-05-10T11:37:56;15.24;77.19
77100;SHT31;66602;48.922;2.414;2023-05-10T11:40:21;16.76;71.51
77100;SHT31;66602;48.922;2.414;2023-05-10T11:42:50;18.82;68.91
77100;SHT31;66602;48.922;2.414;2023-05-10T11:45:16;19.20;62.45
77100;SHT31;66602;48.922;2.414;2023-05-10T11:47:41;18.72;62.13
77100;SHT31;66602;48.922;2.414;2023-05-10T11:50:09;19.61;62.80
77100;SHT31;66602;48.922;2.414;2023-05-10T11:52:36;19.71;58.85
77100;SHT31;66602;48.922;2.414;2023-05-10T11:55:05;19.34;56.95
77100;SHT31;66602;48.922;2.414;2023-05-10T11:57:31;20.56;55.22
77100;SHT31;66602;48.922;2.414;2023-05-10T11:59:57;19.53;58.45
77100;SHT31;66602;48.922;2.414;2023-05-10T12:02:23;18.03;63.69
77100;SHT31;66602;48.922;2.414;2023-05-10T12:04:49;17.29;64.00
77100;SHT31;66602;48.922;2.414;2023-05-10T12:07:16;17.17;64.14
77100;SHT31;66602;48.922;2.414;2023-05-10T12:09:44;17.14;62.73
77100;SHT31;66602;48.922;2.414;2023-05-10T12:12:15;17.14;60.87
77100;SHT31;66602;48.922;2.414;2023-05-10T12:14:41;17.42;61.36
77100;SHT31;66602;48.922;2.414;2023-05-10T12:17:11;17.42;66.94
77100;SHT31;66602;48.922;2.414;2023-05-10T12:19:38;16.95;63.56
77100;SHT31;66602;48.922;2.414;2023-05-10T12:22:06;16.42;65.66
77100;SHT31;66602;48.922;2.414;2023-05-10T12:24:36;15.91;68.16
77100;SHT31;66602;48.922;2.414;2023-05-10T12:27:08;15.11;75.85
77100;SHT31;66602;48.922;2.414;2023-05-10T12:29:33;14.38;77.68
77100;SHT31;66602;48.922;2.414;2023-05-10T12:31:59;14.22;79.49
77100;SHT31;66602;48.922;2.414;2023-05-10T12:34:33;14.41;78.01
77100;SHT31;66602;48.922;2.414;2023-05-10T12:37:00;14.62;81.23
77100;SHT31;66602;48.922;2.414;2023-05-10T12:39:26;14.86;81.71
77100;SHT31;66602;48.922;2.414;2023-05-10T12:42:02;15.03;82.27
77100;SHT31;66602;48.922;2.414;2023-05-10T12:44:27;15.04;79.49
77100;SHT31;66602;48.922;2.414;2023-05-10T12:46:53;14.90;77.20
77100;SHT31;66602;48.922;2.414;2023-05-10T12:49:18;14.86;78.72
77100;SHT31;66602;48.922;2.414;2023-05-10T12:51:44;14.88;81.72
77100;SHT31;66602;48.922;2.414;2023-05-10T12:54:12;14.51;80.66
77100;SHT31;66602;48.922;2.414;2023-05-10T12:56:38;14.22;82.59
77100;SHT31;66602;48.922;2.414;2023-05-10T12:59:05;14.42;84.26
77100;SHT31;66602;48.922;2.414;2023-05-10T13:01:31;15.00;83.01
77100;SHT31;66602;48.922;2.414;2023-05-10T13:03:57;16.16;80.62
77100;SHT31;66602;48.922;2.414;2023-05-10T13:06:22;17.61;78.73
77100;SHT31;66602;48.922;2.414;2023-05-10T13:08:48;18.65;69.97
77100;SHT31;66602;48.922;2.414;2023-05-10T13:11:13;20.36;68.18
77100;SHT31;66602;48.922;2.414;2023-05-10T13:13:41;21.38;66.40
77100;SHT31;66602;48.922;2.414;2023-05-10T13:16:07;21.17;62.41
77100;SHT31;66602;48.922;2.414;2023-05-10T13:18:32;21.55;62.42
77100;SHT31;66602;48.922;2.414;2023-05-10T13:20:58;22.50;65.64
77100;SHT31;66602;48.922;2.414;2023-05-10T13:23:23;22.10;54.76
77100;SHT31;66602;48.922;2.414;2023-05-10T13:25:49;20.42;63.81
77100;SHT31;66602;48.922;2.414;2023-05-10T13:28:15;18.28;67.12
77100;SHT31;66602;48.922;2.414;2023-05-10T13:30:40;16.92;70.31
77100;SHT31;66602;48.922;2.414;2023-05-10T13:33:06;15.97;73.94
77100;SHT31;66602;48.922;2.414;2023-05-10T13:35:31;15.39;76.40
77100;SHT31;66602;48.922;2.414;2023-05-10T13:37:56;15.18;77.40
77100;SHT31;66602;48.922;2.414;2023-05-10T13:40:22;15.00;79.44
77100;SHT31;66602;48.922;2.414;2023-05-10T13:42:48;14.83;79.33
77100;SHT31;66602;48.922;2.414;2023-05-10T13:45:13;14.92;80.30
77100;SHT31;66602;48.922;2.414;2023-05-10T13:47:39;15.29;81.15
77100;SHT31;66602;48.922;2.414;2023-05-10T13:50:05;17.98;73.95
77100;SHT31;66602;48.922;2.414;2023-05-10T13:52:30;19.98;64.82
77100;SHT31;66602;48.922;2.414;2023-05-10T13:54:56;21.54;65.91
77100;SHT31;66602;48.922;2.414;2023-05-10T13:57:22;21.66;60.30
77100;SHT31;66602;48.922;2.414;2023-05-10T13:59:48;21.63;61.98
77100;SHT31;66602;48.922;2.414;2023-05-10T14:02:13;21.11;63.06
77100;SHT31;66602;48.922;2.414;2023-05-10T14:04:39;19.47;62.58
77100;SHT31;66602;48.922;2.414;2023-05-10T14:07:05;17.82;67.95
77100;SHT31;66602;48.922;2.414;2023-05-10T14:09:30;16.83;71.09
77100;SHT31;66602;48.922;2.414;2023-05-10T14:11:56;16.36;74.09
77100;SHT31;66602;48.922;2.414;2023-05-10T14:14:22;16.18;77.76
77100;SHT31;66602;48.922;2.414;2023-05-10T14:16:47;17.40;74.90
77100;SHT31;66602;48.922;2.414;2023-05-10T14:19:13;18.01;69.22
77100;SHT31;66602;48.922;2.414;2023-05-10T14:21:38;17.66;69.58
77100;SHT31;66602;48.922;2.414;2023-05-10T14:24:04;19.61;66.58
77100;SHT31;66602;48.922;2.414;2023-05-10T14:26:30;21.38;58.45
77100;SHT31;66602;48.922;2.414;2023-05-10T14:28:56;22.12;55.44
77100;SHT31;66602;48.922;2.414;2023-05-10T14:31:21;22.30;54.64
77100;SHT31;66602;48.922;2.414;2023-05-10T14:33:48;23.03;56.38
77100;SHT31;66602;48.922;2.414;2023-05-10T14:36:13;22.81;51.30
77100;SHT31;66602;48.922;2.414;2023-05-10T14:38:39;21.12;56.78
77100;SHT31;66602;48.922;2.414;2023-05-10T14:41:05;20.69;60.43
77100;SHT31;66602;48.922;2.414;2023-05-10T14:43:31;20.64;61.09
77100;SHT31;66602;48.922;2.414;2023-05-10T14:45:56;19.67;61.81
77100;SHT31;66602;48.922;2.414;2023-05-10T14:48:22;20.35;59.72
77100;SHT31;66602;48.922;2.414;2023-05-10T14:50:47;20.12;58.82
77100;SHT31;66602;48.922;2.414;2023-05-10T14:53:14;19.00;62.50
77100;SHT31;66602;48.922;2.414;2023-05-10T14:55:40;17.94;69.36
77100;SHT31;66602;48.922;2.414;2023-05-10T14:58:05;17.38;67.72
77100;SHT31;66602;48.922;2.414;2023-05-10T15:00:31;17.63;68.01
77100;SHT31;66602;48.922;2.414;2023-05-10T15:02:56;19.43;61.78
77100;SHT31;66602;48.922;2.414;2023-05-10T15:05:22;21.21;62.53
77100;SHT31;66602;48.922;2.414;2023-05-10T15:07:48;22.71;58.37
77100;SHT31;66602;48.922;2.414;2023-05-10T15:10:14;21.81;55.53
77100;SHT31;66602;48.922;2.414;2023-05-10T15:12:39;20.90;55.67
77100;SHT31;66602;48.922;2.414;2023-05-10T15:15:06;21.62;58.10
77100;SHT31;66602;48.922;2.414;2023-05-10T15:17:32;22.41;52.62
77100;SHT31;66602;48.922;2.414;2023-05-10T15:19:57;22.96;51.35
77100;SHT31;66602;48.922;2.414;2023-05-10T15:22:23;21.71;55.05
77100;SHT31;66602;48.922;2.414;2023-05-10T15:24:49;20.76;58.34
77100;SHT31;66602;48.922;2.414;2023-05-10T15:27:14;20.04;61.41
77100;SHT31;66602;48.922;2.414;2023-05-10T15:29:40;19.41;58.03
77100;SHT31;66602;48.922;2.414;2023-05-10T15:32:05;19.60;51.80
77100;SHT31;66602;48.922;2.414;2023-05-10T15:34:31;20.24;49.02
77100;SHT31;66602;48.922;2.414;2023-05-10T15:36:56;21.21;50.12
77100;SHT31;66602;48.922;2.414;2023-05-10T15:39:22;22.16;45.57
77100;SHT31;66602;48.922;2.414;2023-05-10T15:41:47;22.72;45.27
77100;SHT31;66602;48.922;2.414;2023-05-10T15:44:13;21.83;45.72
77100;SHT31;66602;48.922;2.414;2023-05-10T15:46:38;20.88;49.33
77100;SHT31;66602;48.922;2.414;2023-05-10T15:49:04;19.70;53.68
77100;SHT31;66602;48.922;2.414;2023-05-10T15:51:31;18.81;57.52
77100;SHT31;66602;48.922;2.414;2023-05-10T15:53:58;18.95;57.47